Terminal Aerodrome Forecast
Issued by NWS Paducah, KY

Home | Current Version | Previous Version | Text Only | Print | Product List | Glossary On
Versions: 1 2 3 4 5 6 7 8 9 10 11 12 13 14 15 16
000
FTUS43 KPAH 291740
TAFPAH
TAF
KPAH 291740Z 2918/3018 32007KT 4SM BR VCSH SCT008 OVC015
     FM292000 34010KT P6SM VCSH BKN012 OVC020
     FM292300 35006KT P6SM BKN025
     FM300600 33004KT 3SM BR BKN010
     FM301400 32005KT P6SM BKN015=

USA.gov is the U.S. government's official web portal to all federal, state and local government web resources and services.